Time;durP1;ratioP1;P1;durP2;ratioP2;P2;SDS_P1;SDS_P2;PMS_P1;PMS_P2;Temp;Humidity;BMP_temperature;BMP_pressure;BME280_temperature;BME280_humidity;BME280_pressure;Samples;Min_cycle;Max_cycle;Signal;HPM_P1;HPM_P2
2022/01/10 00:00:10;;;;;;;2.00;1.30;;;;;;;2.17;89.91;97425.03;5161904;27;20047;-96
2022/01/10 00:02:36;;;;;;;;;;;;;;;2.36;89.75;97464.94;5158916;27;20047;-95
2022/01/10 00:05:03;;;;;;;1.70;1.30;;;;;;;2.12;89.48;97415.50;5158050;27;19940;-94
2022/01/10 00:07:28;;;;;;;1.35;1.25;;;;;;;2.17;89.39;97417.16;5159342;27;20505;-94
2022/01/10 00:09:56;;;;;;;1.42;1.33;;;;;;;2.15;88.75;97420.72;5160634;27;20129;-93
2022/01/10 00:12:22;;;;;;;1.45;1.30;;;;;;;2.29;89.34;97455.44;5159021;27;20043;-92
2022/01/10 00:14:48;;;;;;;1.60;1.50;;;;;;;2.34;88.52;97442.25;5158846;27;20453;-93
2022/01/10 00:17:22;;;;;;;1.50;1.40;;;;;;;2.11;89.86;97413.78;5160945;27;20050;-94
2022/01/10 00:19:48;;;;;;;1.52;1.30;;;;;;;2.07;88.81;97410.31;5159727;27;20492;-94
2022/01/10 00:22:14;;;;;;;1.63;1.35;;;;;;;2.15;88.08;97413.69;5160859;27;20035;-95
2022/01/10 00:24:40;;;;;;;1.65;1.27;;;;;;;2.30;88.88;97444.06;5160193;27;20107;-95
2022/01/10 00:27:07;;;;;;;1.52;1.42;;;;;;;2.12;87.92;97410.25;5159607;27;20135;-95
2022/01/10 00:29:33;;;;;;;1.30;1.20;;;;;;;2.11;88.19;97414.63;5161364;27;20049;-94
2022/01/10 00:32:05;;;;;;;1.45;1.30;;;;;;;2.25;87.94;97428.38;5159526;27;20064;-95
2022/01/10 00:34:31;;;;;;;;;;;;;;;2.34;88.31;97448.38;5162157;27;20100;-95
2022/01/10 00:36:58;;;;;;;1.52;1.42;;;;;;;2.05;90.61;97412.94;5159881;27;19980;-95
2022/01/10 00:39:24;;;;;;;2.13;1.50;;;;;;;2.02;88.87;97407.78;5160572;27;20071;-94
2022/01/10 00:41:50;;;;;;;1.30;1.23;;;;;;;2.06;89.39;97416.47;5161509;27;20047;-95
2022/01/10 00:44:24;;;;;;;1.40;1.30;;;;;;;2.16;87.80;97425.03;5161121;27;20519;-95
2022/01/10 00:46:50;;;;;;;1.40;1.30;;;;;;;2.19;88.13;97435.47;5160431;27;20384;-94
2022/01/10 00:49:17;;;;;;;1.98;1.30;;;;;;;2.18;87.43;97433.75;5158998;27;20057;-94
2022/01/10 00:51:43;;;;;;;1.27;1.17;;;;;;;2.28;87.37;97468.56;5158300;27;20043;-94
2022/01/10 00:54:10;;;;;;;2.40;1.40;;;;;;;2.22;87.70;97454.66;5159417;27;20039;-95
2022/01/10 00:56:36;;;;;;;1.40;1.30;;;;;;;2.25;88.25;97449.38;5158420;27;20078;-94
2022/01/10 00:59:04;;;;;;;1.98;1.50;;;;;;;2.16;88.57;97448.66;5158935;27;20046;-96
2022/01/10 01:01:31;;;;;;;1.85;1.50;;;;;;;2.10;89.17;97454.84;5159015;27;20041;-95
2022/01/10 01:03:57;;;;;;;2.35;1.40;;;;;;;2.08;88.70;97446.13;5143820;27;20105;-94
2022/01/10 01:06:23;;;;;;;1.45;1.30;;;;;;;2.11;88.63;97437.38;5144840;27;20047;-94
2022/01/10 01:08:49;;;;;;;1.52;1.42;;;;;;;2.08;89.36;97446.13;5146897;27;20043;-94
2022/01/10 01:14:36;;;;;;;2.65;1.60;;;;;;;2.31;89.29;97468.53;5121697;27;20392;-94
2022/01/10 01:20:41;;;;;;;1.60;1.48;;;;;;;2.35;89.56;97470.22;5119518;28;20106;-96
2022/01/10 01:26:14;;;;;;;1.55;1.30;;;;;;;2.28;89.85;97447.59;5098908;27;20382;-94
2022/01/10 01:28:40;;;;;;;1.48;1.27;;;;;;;2.18;90.19;97442.47;5099756;28;20051;-95
2022/01/10 01:34:28;;;;;;;1.58;1.40;;;;;;;2.07;90.39;97428.66;5097462;28;20032;-93
2022/01/10 01:36:56;;;;;;;1.67;1.40;;;;;;;2.18;90.51;97449.50;5099484;28;20048;-96
2022/01/10 01:39:28;;;;;;;1.30;1.20;;;;;;;2.36;89.36;97464.94;5098805;28;20036;-95
2022/01/10 01:42:02;;;;;;;2.50;1.23;;;;;;;2.33;88.18;97448.41;5099594;28;20103;-93
2022/01/10 01:44:29;;;;;;;1.27;1.23;;;;;;;2.29;87.28;97434.44;5097870;28;20401;-95
2022/01/10 01:50:16;;;;;;;2.38;1.42;;;;;;;2.36;87.64;97443.09;5099540;28;20032;-95
2022/01/10 01:52:42;;;;;;;1.17;1.13;;;;;;;2.30;87.91;97437.94;5098526;28;20048;-96
2022/01/10 01:55:11;;;;;;;1.30;1.20;;;;;;;2.41;87.90;97463.13;5099199;28;20407;-95
2022/01/10 01:57:39;;;;;;;1.30;1.20;;;;;;;2.24;87.63;97437.16;5098015;28;20386;-94
2022/01/10 02:00:07;;;;;;;1.98;1.30;;;;;;;2.22;87.75;97436.31;5098049;28;20048;-93
2022/01/10 02:02:33;;;;;;;1.52;1.40;;;;;;;2.37;87.82;97464.06;5097728;28;20040;-95
2022/01/10 02:04:59;;;;;;;2.92;1.55;;;;;;;2.17;88.81;97432.00;5098565;28;20550;-94
2022/01/10 02:07:25;;;;;;;3.05;1.42;;;;;;;2.13;88.10;97418.09;5099178;28;20056;-95
2022/01/10 02:09:51;;;;;;;2.35;1.40;;;;;;;2.13;88.37;97422.47;5097413;28;20525;-95
2022/01/10 02:12:17;;;;;;;3.70;1.50;;;;;;;2.28;87.08;97426.59;5096155;28;20086;-94
2022/01/10 02:14:47;;;;;;;2.67;1.55;;;;;;;2.34;87.29;97431.75;5096263;28;20044;-94
2022/01/10 02:20:36;;;;;;;5.20;1.63;;;;;;;2.49;86.21;97417.53;5075519;28;20116;-95
2022/01/10 02:23:02;;;;;;;2.45;1.70;;;;;;;2.51;86.20;97411.34;5082836;28;20071;-95
2022/01/10 02:25:28;;;;;;;2.15;1.60;;;;;;;2.57;86.59;97426.16;5097100;28;20068;-95
2022/01/10 02:27:55;;;;;;;2.20;1.63;;;;;;;2.66;86.58;97436.47;5098313;28;20078;-94
2022/01/10 02:30:21;;;;;;;3.17;1.60;;;;;;;2.56;86.70;97420.03;5098054;28;20036;-93
2022/01/10 02:32:48;;;;;;;2.88;1.70;;;;;;;2.69;85.32;97415.44;5095471;28;20505;-95
2022/01/10 02:35:19;;;;;;;1.92;1.50;;;;;;;2.75;85.02;97414.44;5094261;28;20052;-96
2022/01/10 02:37:49;;;;;;;1.92;1.52;;;;;;;2.72;85.30;97411.91;5083725;28;20374;-94
2022/01/10 02:40:15;;;;;;;;;;;;;;;2.89;85.71;97443.97;5084479;28;20040;-95
2022/01/10 02:42:41;;;;;;;3.70;1.75;;;;;;;2.83;85.17;97430.94;5082486;28;20003;-94
2022/01/10 02:45:07;;;;;;;2.42;1.60;;;;;;;2.87;84.46;97424.75;5081719;28;20041;-95
2022/01/10 02:47:35;;;;;;;4.75;1.90;;;;;;;2.81;84.68;97416.97;5082266;28;20051;-94
2022/01/10 02:50:01;;;;;;;2.92;1.85;;;;;;;2.87;84.57;97420.34;5083209;28;20053;-94
2022/01/10 02:52:27;;;;;;;2.78;1.58;;;;;;;2.96;84.51;97428.97;5083294;28;20177;-95
2022/01/10 02:54:57;;;;;;;2.60;1.67;;;;;;;2.73;85.23;97405.75;5082851;28;20068;-94
2022/01/10 02:57:24;;;;;;;2.88;1.60;;;;;;;2.68;86.16;97411.94;5084094;28;20067;-95
2022/01/10 02:59:50;;;;;;;2.92;1.83;;;;;;;2.64;86.67;97399.75;5082701;28;20044;-94
2022/01/10 03:05:38;;;;;;;2.28;1.60;;;;;;;2.81;84.79;97399.47;5061679;28;20029;-94
2022/01/10 03:08:04;;;;;;;2.63;1.63;;;;;;;3.00;84.92;97428.88;5061148;28;20095;-95
2022/01/10 03:10:32;;;;;;;2.97;1.80;;;;;;;2.93;84.67;97401.00;5062155;28;20041;-95
2022/01/10 03:12:59;;;;;;;2.30;1.60;;;;;;;2.90;84.42;97406.28;5064031;28;20033;-94
2022/01/10 03:15:27;;;;;;;2.97;1.60;;;;;;;3.06;84.39;97413.00;5081877;28;20068;-95
2022/01/10 03:17:53;;;;;;;3.50;1.70;;;;;;;2.97;84.12;97400.06;5082645;28;20044;-94
2022/01/10 03:20:19;;;;;;;2.38;1.60;;;;;;;2.93;84.76;97389.63;5081172;28;20098;-94
2022/01/10 03:22:48;;;;;;;9.68;2.10;;;;;;;2.91;85.43;97407.16;5082626;28;20075;-93
2022/01/10 03:25:14;;;;;;;2.10;1.70;;;;;;;2.91;86.72;97420.28;5082811;28;20045;-94
2022/01/10 03:27:41;;;;;;;2.10;1.60;;;;;;;2.79;86.45;97403.00;5082575;28;20084;-94
2022/01/10 03:30:10;;;;;;;1.80;1.70;;;;;;;2.97;84.96;97405.31;5080931;28;20044;-95
2022/01/10 03:32:37;;;;;;;2.63;1.67;;;;;;;2.97;85.44;97407.94;5081342;28;20047;-94
2022/01/10 03:35:03;;;;;;;3.47;1.65;;;;;;;3.03;84.80;97399.06;5081297;28;20315;-94
2022/01/10 03:37:29;;;;;;;2.95;1.70;;;;;;;3.11;84.98;97419.94;5081576;28;20076;-93
2022/01/10 03:39:55;;;;;;;2.67;1.67;;;;;;;3.02;84.63;97403.44;5081510;28;20525;-96
2022/01/10 03:42:21;;;;;;;2.35;1.73;;;;;;;3.11;84.85;97414.69;5081409;28;20048;-95
2022/01/10 03:44:48;;;;;;;3.85;1.60;;;;;;;3.09;84.79;97412.94;5081430;28;20037;-92
2022/01/10 03:50:36;;;;;;;3.58;1.90;;;;;;;3.27;84.65;97434.50;5079730;28;20318;-94
2022/01/10 03:53:03;;;;;;;4.00;1.80;;;;;;;3.19;84.28;97408.38;5081351;28;20084;-94
2022/01/10 03:55:29;;;;;;;4.53;2.05;;;;;;;3.18;83.88;97403.16;5082827;28;20042;-94
2022/01/10 03:57:56;;;;;;;3.78;2.22;;;;;;;3.16;83.83;97397.06;5082397;28;20047;-95
2022/01/10 04:00:23;;;;;;;2.30;1.77;;;;;;;3.15;83.89;97396.22;5083139;28;20430;-94
2022/01/10 04:02:56;;;;;;;3.58;2.10;;;;;;;3.23;82.71;97390.78;5080863;28;20390;-94
2022/01/10 04:05:23;;;;;;;3.97;2.17;;;;;;;3.26;83.19;97402.09;5081096;28;20071;-95
2022/01/10 04:07:52;;;;;;;5.97;2.78;;;;;;;3.20;83.58;97396.97;5082618;28;20052;-95
2022/01/10 04:10:18;;;;;;;4.03;2.25;;;;;;;3.30;84.55;97416.06;5080633;28;20110;-92
2022/01/10 04:12:46;;;;;;;3.35;2.10;;;;;;;3.28;84.08;97415.22;5082175;28;20482;-94
2022/01/10 04:15:12;;;;;;;2.60;1.90;;;;;;;3.11;85.87;97397.16;5082121;28;20064;-95
2022/01/10 04:17:41;;;;;;;4.20;2.25;;;;;;;3.03;85.99;97393.81;5080412;28;20029;-95
2022/01/10 04:20:08;;;;;;;7.93;2.15;;;;;;;3.24;85.69;97429.31;5081700;28;20055;-95
2022/01/10 04:22:35;;;;;;;4.38;2.20;;;;;;;3.13;84.78;97403.25;5080315;28;20045;-96
2022/01/10 04:25:00;;;;;;;4.13;2.28;;;;;;;3.03;86.46;97399.91;5082535;28;20052;-94
2022/01/10 04:27:31;;;;;;;4.93;2.45;;;;;;;3.29;84.68;97416.94;5082841;28;20211;-94
2022/01/10 04:30:00;;;;;;;4.82;2.35;;;;;;;3.38;83.65;97402.75;5082849;28;20040;-94
2022/01/10 04:35:49;;;;;;;4.35;2.22;;;;;;;3.44;84.56;97426.28;5082071;28;20138;-94
2022/01/10 04:38:16;;;;;;;4.50;2.50;;;;;;;3.56;84.47;97439.19;5082674;28;20048;-94
2022/01/10 04:40:42;;;;;;;5.65;2.40;;;;;;;3.44;84.64;97424.50;5082424;28;20074;-93
2022/01/10 04:43:08;;;;;;;4.30;2.10;;;;;;;3.35;85.12;97414.19;5081301;28;20047;-94
2022/01/10 04:45:36;;;;;;;6.15;2.65;;;;;;;3.36;85.71;97417.69;5080256;28;20041;-95
2022/01/10 04:48:02;;;;;;;5.22;2.35;;;;;;;3.28;85.86;97418.72;5080636;28;20114;-94
2022/01/10 04:56:34;;;;;;;6.53;2.40;;;;;;;3.40;86.02;97441.22;5138485;27;20387;-91
2022/01/10 04:59:01;;;;;;;2.05;1.70;;;;;;;3.41;85.00;97431.63;5139889;27;20043;-94
2022/01/10 05:04:49;;;;;;;3.50;2.03;;;;;;;3.48;85.67;97462.97;5139501;28;20177;-92
2022/01/10 05:07:15;;;;;;;2.42;1.80;;;;;;;3.58;84.58;97475.94;5138116;28;20078;-93
2022/01/10 05:09:41;;;;;;;4.55;2.03;;;;;;;3.44;84.34;97452.56;5141146;28;20077;-94
2022/01/10 05:12:10;;;;;;;3.40;1.85;;;;;;;3.67;84.42;97496.78;5139633;28;20500;-93
2022/01/10 05:14:36;;;;;;;3.25;2.00;;;;;;;3.57;84.88;97472.44;5142312;28;20043;-94
2022/01/10 05:20:23;;;;;;;2.72;1.77;;;;;;;3.38;86.07;97469.31;5139818;27;20046;-93
2022/01/10 05:22:49;;;;;;;6.28;2.22;;;;;;;3.57;87.10;97518.91;5139571;28;20051;-92
2022/01/10 05:25:15;;;;;;;4.03;2.22;;;;;;;3.38;89.01;97487.69;5140971;28;20156;-91
2022/01/10 05:27:43;;;;;;;3.95;2.53;;;;;;;3.32;89.10;97495.72;5138403;28;20051;-93
2022/01/10 05:30:11;;;;;;;2.80;1.75;;;;;;;3.10;90.99;97482.09;5138801;28;20052;-94
2022/01/10 05:32:38;;;;;;;3.23;2.13;;;;;;;3.06;92.26;97486.53;5140326;28;20043;-94
2022/01/10 05:35:05;;;;;;;4.95;2.30;;;;;;;3.03;92.91;97496.22;5138864;27;20386;-96
2022/01/10 05:37:31;;;;;;;6.38;2.80;;;;;;;3.03;93.15;97501.47;5139923;28;20099;-94
2022/01/10 05:39:57;;;;;;;3.83;2.67;;;;;;;2.88;93.93;97499.97;5137690;28;20071;-94
2022/01/10 05:42:24;;;;;;;3.45;2.10;;;;;;;2.81;94.82;97491.34;5141190;28;20063;-95
2022/01/10 05:44:51;;;;;;;3.88;2.25;;;;;;;2.93;95.02;97527.03;5140864;28;20180;-95
2022/01/10 05:50:44;;;;;;;3.63;1.98;;;;;;;2.78;95.05;97507.16;5140479;28;20385;-94
2022/01/10 05:53:10;;;;;;;3.60;2.40;;;;;;;2.72;95.52;97509.00;5139975;28;20103;-94
2022/01/10 05:55:37;;;;;;;4.55;3.10;;;;;;;2.63;96.72;97500.38;5140415;27;20062;-94
2022/01/10 05:58:04;;;;;;;3.15;2.00;;;;;;;2.67;95.71;97509.94;5140241;28;20428;-95
2022/01/10 06:00:32;;;;;;;4.38;2.60;;;;;;;2.75;96.30;97527.31;5139968;28;20083;-94
2022/01/10 06:03:00;;;;;;;3.35;2.15;;;;;;;2.62;96.63;97514.41;5139207;28;20049;-95
2022/01/10 06:05:30;;;;;;;4.43;2.88;;;;;;;2.68;95.40;97527.41;5137091;28;20043;-94
2022/01/10 06:07:57;;;;;;;4.57;2.40;;;;;;;2.79;96.63;97529.00;5126000;28;20520;-94
2022/01/10 06:10:24;;;;;;;2.92;2.00;;;;;;;2.61;96.54;97512.66;5128479;28;20043;-95
2022/01/10 06:12:50;;;;;;;3.65;2.17;;;;;;;2.64;97.62;97532.75;5124263;28;20100;-93
2022/01/10 06:15:16;;;;;;;3.38;2.20;;;;;;;2.61;96.20;97527.56;5123651;28;20065;-95
2022/01/10 06:17:44;;;;;;;4.25;2.55;;;;;;;2.54;97.00;97518.91;5124049;28;20059;-94
2022/01/10 06:20:12;;;;;;;4.47;2.40;;;;;;;2.51;97.03;97518.94;5122016;28;20035;-94
2022/01/10 06:22:38;;;;;;;4.55;2.60;;;;;;;2.53;97.79;97518.94;5123039;28;20112;-94
2022/01/10 06:25:05;;;;;;;4.18;2.53;;;;;;;2.59;96.63;97537.22;5124559;28;20476;-94
2022/01/10 06:27:31;;;;;;;5.35;2.70;;;;;;;2.52;96.59;97520.69;5124846;28;20501;-95
2022/01/10 06:29:57;;;;;;;5.57;2.33;;;;;;;2.62;94.97;97524.03;5124764;28;20058;-94
2022/01/10 06:35:47;;;;;;;4.47;2.75;;;;;;;2.56;96.35;97532.00;5122531;28;20122;-95
2022/01/10 06:38:12;;;;;;;5.28;2.92;;;;;;;2.58;95.05;97533.72;5120674;28;20063;-93
2022/01/10 06:40:40;;;;;;;5.28;3.13;;;;;;;2.66;93.49;97529.19;5122480;28;20070;-94
2022/01/10 06:43:08;;;;;;;5.20;3.03;;;;;;;2.86;90.73;97530.63;5123402;28;20063;-93
2022/01/10 06:45:34;;;;;;;4.72;3.20;;;;;;;2.91;90.58;97534.06;5124221;28;20032;-95
2022/01/10 06:48:01;;;;;;;4.97;3.45;;;;;;;2.91;90.20;97536.69;5124735;28;20054;-94
2022/01/10 06:50:28;;;;;;;5.70;3.50;;;;;;;2.86;91.04;97541.16;5123476;28;20508;-96
2022/01/10 06:52:57;;;;;;;4.90;3.20;;;;;;;2.90;90.84;97534.09;5122384;28;20039;-96
2022/01/10 06:55:23;;;;;;;5.57;3.03;;;;;;;2.86;91.33;97544.66;5124867;28;20078;-95
2022/01/10 06:57:50;;;;;;;5.38;3.25;;;;;;;2.82;91.20;97544.69;5128489;28;20111;-96
2022/01/10 07:00:16;;;;;;;5.80;3.53;;;;;;;2.87;91.78;97561.28;5126836;28;20043;-94
2022/01/10 07:02:43;;;;;;;6.80;4.10;;;;;;;2.81;91.79;97550.88;5125599;28;20405;-94
2022/01/10 07:05:10;;;;;;;7.05;4.53;;;;;;;2.90;90.08;97547.22;5128389;28;20051;-94
2022/01/10 07:07:37;;;;;;;11.23;6.32;;;;;;;3.06;90.13;97583.72;5129023;28;20115;-95
2022/01/10 07:10:06;;;;;;;8.30;4.72;;;;;;;3.22;90.46;97588.72;5127977;28;20040;-94
2022/01/10 07:12:35;;;;;;;9.90;5.97;;;;;;;3.00;89.39;97552.31;5127892;28;20046;-92
2022/01/10 07:21:44;;;;;;;9.68;6.15;;;;;;;3.33;88.61;97592.03;5121802;28;20500;-94
2022/01/10 07:24:10;;;;;;;8.57;5.28;;;;;;;3.19;87.73;97559.84;5123939;28;20089;-96
2022/01/10 07:26:40;;;;;;;8.00;5.30;;;;;;;3.17;87.60;97557.28;5125024;28;20083;-95
2022/01/10 07:29:08;;;;;;;8.65;5.00;;;;;;;3.36;87.23;97599.88;5123226;28;20103;-95
2022/01/10 07:34:56;;;;;;;10.85;5.70;;;;;;;3.36;86.05;97564.81;5124701;28;20027;-94
2022/01/10 07:37:25;;;;;;;11.32;7.50;;;;;;;3.24;86.46;97561.53;5124719;28;20040;-94
2022/01/10 07:39:52;;;;;;;10.77;5.05;;;;;;;3.31;85.93;97570.16;5123423;28;20123;-92
2022/01/10 07:42:19;;;;;;;9.20;4.88;;;;;;;3.43;85.68;97572.59;5122094;28;20048;-94
2022/01/10 07:44:45;;;;;;;9.98;6.00;;;;;;;3.33;86.36;97557.88;5125837;28;20042;-94
2022/01/10 07:50:33;;;;;;;14.10;8.77;;;;;;;3.39;86.56;97580.56;5125626;28;20132;-95
2022/01/10 07:52:59;;;;;;;14.32;8.98;;;;;;;3.38;86.36;97573.53;5126489;28;20048;-95
2022/01/10 07:55:25;;;;;;;9.00;5.65;;;;;;;3.44;85.00;97569.03;5124146;28;20055;-94
2022/01/10 07:57:53;;;;;;;10.13;6.38;;;;;;;3.48;84.67;97575.13;5124606;28;20063;-94
2022/01/10 08:00:20;;;;;;;9.57;5.47;;;;;;;3.52;85.96;97568.94;5128009;28;20043;-96
2022/01/10 08:02:46;;;;;;;11.68;7.57;;;;;;;3.70;84.32;97591.38;5125640;28;20128;-95
2022/01/10 08:05:12;;;;;;;10.93;6.30;;;;;;;3.63;84.11;97577.47;5124764;28;20055;-94
2022/01/10 08:07:38;;;;;;;10.73;6.78;;;;;;;3.63;84.08;97577.47;5124288;28;20095;-92
2022/01/10 08:10:06;;;;;;;9.45;6.35;;;;;;;3.71;84.12;97574.72;5124323;28;20047;-95
2022/01/10 08:12:32;;;;;;;12.65;7.78;;;;;;;3.79;83.73;97599.06;5123854;28;20044;-94
2022/01/10 08:21:41;;;;;;;11.43;5.78;;;;;;;3.88;82.07;97592.78;5083205;28;20028;-95
2022/01/10 08:24:07;;;;;;;8.68;5.63;;;;;;;3.99;82.15;97601.34;5082118;28;20052;-95
2022/01/10 08:26:34;;;;;;;7.80;4.70;;;;;;;3.93;81.74;97587.44;5081586;28;20104;-95
2022/01/10 08:29:01;;;;;;;9.48;5.38;;;;;;;3.97;81.93;97603.13;5083952;28;20068;-94
2022/01/10 08:34:50;;;;;;;8.40;5.00;;;;;;;4.01;81.59;97614.44;5082728;28;20033;-93
2022/01/10 08:37:18;;;;;;;6.80;4.32;;;;;;;4.08;81.62;97621.34;5081599;28;20064;-94
2022/01/10 08:39:49;;;;;;;6.85;4.15;;;;;;;4.20;81.90;97643.91;5084188;28;20055;-95
2022/01/10 08:42:15;;;;;;;7.93;4.45;;;;;;;4.01;82.56;97620.59;5084143;28;20044;-94
2022/01/10 08:44:43;;;;;;;6.10;4.25;;;;;;;4.09;82.26;97629.19;5081146;28;20079;-95
2022/01/10 08:47:11;;;;;;;5.85;3.40;;;;;;;4.02;82.71;97621.47;5078739;28;20048;-95
2022/01/10 08:49:37;;;;;;;9.63;6.70;;;;;;;4.08;82.38;97629.25;5082857;28;20047;-91
2022/01/10 08:52:04;;;;;;;5.07;3.03;;;;;;;4.16;83.04;97622.03;5083748;28;20044;-95
2022/01/10 08:54:35;;;;;;;4.93;2.95;;;;;;;4.42;82.46;97662.75;5081983;28;20060;-95
2022/01/10 08:57:02;;;;;;;5.15;3.63;;;;;;;4.06;82.50;97617.88;5081360;28;20047;-94
2022/01/10 08:59:29;;;;;;;5.13;3.10;;;;;;;4.09;81.89;97637.06;5077226;28;20530;-94
2022/01/10 09:05:17;;;;;;;5.07;2.95;;;;;;;4.31;81.68;97652.44;5082835;28;20037;-95
2022/01/10 09:07:44;;;;;;;5.13;3.13;;;;;;;4.36;81.63;97663.75;5102841;28;20398;-96
2022/01/10 09:10:11;;;;;;;6.65;3.78;;;;;;;4.23;82.76;97668.41;5124708;28;20044;-93
2022/01/10 09:12:38;;;;;;;6.97;3.75;;;;;;;4.13;83.00;97665.97;5123500;28;20047;-94
2022/01/10 09:18:27;;;;;;;7.82;4.85;;;;;;;4.09;82.56;97667.78;5124578;28;20495;-92
2022/01/10 09:20:55;;;;;;;5.60;3.50;;;;;;;4.25;82.59;97660.47;5123527;28;20043;-93
2022/01/10 09:23:27;;;;;;;5.38;3.60;;;;;;;4.29;82.23;97672.66;5124219;28;20036;-95
2022/01/10 09:25:54;;;;;;;8.02;4.35;;;;;;;4.40;81.57;97675.97;5124979;28;20079;-94
2022/01/10 09:28:24;;;;;;;6.93;3.97;;;;;;;4.49;81.76;97711.78;5122892;28;20054;-94
2022/01/10 09:30:50;;;;;;;6.78;3.80;;;;;;;4.35;81.65;97675.19;5128121;28;20139;-95
2022/01/10 09:33:18;;;;;;;4.03;2.90;;;;;;;4.37;79.86;97662.84;5126130;28;20080;-96
2022/01/10 09:35:44;;;;;;;4.85;2.83;;;;;;;4.44;79.60;97674.97;5120548;28;20081;-94
2022/01/10 09:38:13;;;;;;;4.82;2.65;;;;;;;4.54;79.29;97670.41;5122494;28;20039;-95
2022/01/10 09:40:40;;;;;;;4.82;2.70;;;;;;;4.70;79.47;97678.84;5122488;28;20048;-94
2022/01/10 09:43:09;;;;;;;4.95;3.00;;;;;;;4.68;79.56;97685.91;5128268;28;20193;-95
2022/01/10 09:49:31;;;;;;;4.13;2.40;;;;;;;4.86;79.93;97713.66;5126076;28;20040;-96
2022/01/10 09:52:00;;;;;;;3.85;2.42;;;;;;;4.48;80.85;97679.28;5125495;28;20039;-94
2022/01/10 09:54:28;;;;;;;3.97;2.30;;;;;;;4.53;80.67;97697.63;5123652;28;20184;-96
2022/01/10 09:56:54;;;;;;;4.60;2.65;;;;;;;4.48;81.06;97700.34;5124071;28;20047;-93
2022/01/10 15:39:15;;;;;;;21.20;9.18;;;;;;;4.99;72.91;97922.38;5085867;27;1526943;-95
2022/01/10 15:41:43;;;;;;;7.65;3.13;;;;;;;4.95;73.22;97921.56;5122116;28;20063;-94
2022/01/10 15:44:09;;;;;;;5.90;3.38;;;;;;;4.92;73.52;97921.63;5116460;28;20040;-95
2022/01/10 15:49:56;;;;;;;5.82;3.45;;;;;;;4.90;74.39;97952.38;5105237;28;20040;-95
2022/01/10 15:52:25;;;;;;;5.00;2.90;;;;;;;4.76;75.35;97946.50;5101298;28;20036;-96
2022/01/10 15:54:56;;;;;;;6.65;3.30;;;;;;;4.89;74.84;97974.38;5099877;28;20051;-95
2022/01/10 15:57:21;;;;;;;7.43;3.13;;;;;;;4.93;74.30;97982.19;5112538;28;20046;-94
2022/01/10 15:59:47;;;;;;;6.13;3.70;;;;;;;5.02;73.23;97975.88;5105690;28;20107;-93
2022/01/10 16:05:40;;;;;;;6.53;3.30;;;;;;;4.78;74.65;97952.63;5111782;28;20047;-93
2022/01/10 16:08:08;;;;;;;7.20;3.55;;;;;;;4.79;73.97;97957.84;5166120;22;20052;-95
2022/01/10 16:10:37;;;;;;;7.78;3.33;;;;;;;4.89;73.15;97963.84;5069250;28;20045;-92
2022/01/10 16:13:03;;;;;;;8.05;3.50;;;;;;;5.10;71.44;97981.03;5059557;28;20143;-96
2022/01/10 16:21:29;;;;;;;9.02;4.95;;;;;;;5.06;73.26;97987.25;5267993;23;20053;-94
2022/01/10 16:23:55;;;;;;;8.93;4.10;;;;;;;4.98;73.74;97968.94;5066033;28;20108;-96
2022/01/10 16:26:22;;;;;;;12.82;5.38;;;;;;;5.11;74.89;98015.25;5067483;28;20036;-96
2022/01/10 16:28:49;;;;;;;10.70;4.45;;;;;;;4.85;74.80;97980.59;5066966;28;20041;-96
2022/01/10 16:31:21;;;;;;;6.85;3.70;;;;;;;4.85;75.64;97993.75;5065696;28;20094;-95
2022/01/10 16:33:51;;;;;;;8.32;3.65;;;;;;;4.84;76.58;98013.09;5060006;28;20068;-93
2022/01/10 16:36:20;;;;;;;6.22;3.58;;;;;;;4.68;78.05;97997.56;5064014;28;20041;-95
2022/01/10 16:38:46;;;;;;;11.23;4.53;;;;;;;4.51;79.59;98003.06;5064070;28;20045;-94
2022/01/10 16:41:14;;;;;;;7.07;3.90;;;;;;;4.50;79.71;98000.44;5064794;28;20064;-96
2022/01/10 16:43:42;;;;;;;7.65;4.10;;;;;;;4.59;81.21;98024.00;5067016;28;20052;-94
2022/01/10 16:49:30;;;;;;;35.53;21.77;;;;;;;4.45;80.34;97995.25;5065334;28;20143;-94
2022/01/10 16:51:56;;;;;;;6.60;3.40;;;;;;;4.84;77.22;98028.91;5061277;28;20051;-94
2022/01/10 16:54:23;;;;;;;9.18;4.28;;;;;;;4.60;78.35;98002.06;5065825;28;20037;-93
2022/01/10 16:56:49;;;;;;;8.70;3.92;;;;;;;4.63;78.46;98001.13;5063650;28;20056;-93
2022/01/10 16:59:17;;;;;;;8.93;4.68;;;;;;;4.61;78.38;98011.69;5061790;28;20044;-94
2022/01/10 17:05:08;;;;;;;17.25;8.82;;;;;;;4.56;78.46;98015.28;5062658;28;20037;-95
2022/01/10 17:07:41;;;;;;;18.30;8.05;;;;;;;4.71;76.02;98018.56;5063083;28;20045;-95
2022/01/10 17:10:11;;;;;;;9.02;4.97;;;;;;;4.72;75.92;98015.00;5062826;28;20056;-94
2022/01/10 17:12:38;;;;;;;11.13;5.50;;;;;;;4.72;75.12;98014.16;5061375;28;20491;-93
2022/01/10 17:15:07;;;;;;;9.40;5.00;;;;;;;4.86;75.66;98037.66;5059976;28;20048;-95
2022/01/10 17:17:34;;;;;;;23.88;10.98;;;;;;;4.89;74.33;98037.59;5060227;28;20073;-94
2022/01/10 17:20:00;;;;;;;41.88;18.05;;;;;;;4.85;74.68;98036.75;5059546;28;20091;-93
2022/01/10 17:22:27;;;;;;;8.23;4.70;;;;;;;5.10;75.51;98076.78;5061197;28;20192;-95
2022/01/10 17:24:53;;;;;;;8.07;4.05;;;;;;;5.02;75.79;98078.66;5067612;28;20079;-95
2022/01/10 17:27:19;;;;;;;10.90;4.00;;;;;;;4.91;75.44;98062.16;5059360;28;20079;-94
2022/01/10 17:29:45;;;;;;;7.25;4.10;;;;;;;4.91;76.91;98070.06;5059107;28;20036;-94
2022/01/10 17:35:36;;;;;;;15.88;7.85;;;;;;;5.02;76.40;98106.78;5062223;28;20025;-93
2022/01/10 17:38:03;;;;;;;8.55;4.13;;;;;;;4.91;76.21;98089.34;5081612;28;20066;-94
2022/01/10 17:40:31;;;;;;;9.77;5.28;;;;;;;4.75;78.56;98069.44;5063133;28;20063;-95
2022/01/10 17:42:57;;;;;;;8.57;3.97;;;;;;;4.78;77.77;98087.81;5066421;28;20041;-93
2022/01/10 17:45:23;;;;;;;6.15;3.65;;;;;;;4.69;79.86;98065.13;5078042;28;20048;-94
2022/01/10 17:47:49;;;;;;;11.55;6.25;;;;;;;4.97;77.76;98098.94;5081370;28;20064;-93
2022/01/10 17:50:26;;;;;;;14.85;6.57;;;;;;;4.77;80.14;98072.91;5081463;28;20049;-95
2022/01/10 17:52:55;;;;;;;8.18;3.53;;;;;;;4.67;78.09;98079.19;5075833;28;20049;-93
2022/01/10 17:55:22;;;;;;;6.20;3.30;;;;;;;4.79;77.62;98101.84;5061584;28;20044;-93
2022/01/10 17:57:49;;;;;;;5.63;3.60;;;;;;;4.70;77.49;98090.53;5062125;28;20045;-94
2022/01/10 18:07:04;;;;;;;6.85;4.38;;;;;;;5.05;73.33;98131.31;5063101;28;20033;-94
2022/01/10 18:09:34;;;;;;;9.20;4.78;;;;;;;5.21;72.40;98144.25;5057268;28;20353;-92
2022/01/10 18:12:00;;;;;;;7.70;3.90;;;;;;;5.00;72.16;98114.69;5058616;28;20529;-94
2022/01/10 18:14:26;;;;;;;8.48;4.88;;;;;;;5.08;73.38;98122.50;5061856;28;20044;-93
2022/01/10 18:21:05;;;;;;;11.45;6.30;;;;;;;5.29;70.83;98152.91;5063279;28;20090;-94
2022/01/10 18:23:31;;;;;;;10.65;5.15;;;;;;;5.31;69.41;98157.28;5039582;28;20068;-90
2022/01/10 18:25:59;;;;;;;12.48;6.68;;;;;;;5.12;69.59;98119.78;5037816;28;20100;-94
2022/01/10 18:28:24;;;;;;;9.73;5.65;;;;;;;5.30;70.37;98146.75;5029495;28;20045;-91
2022/01/10 18:30:55;;;;;;;13.48;6.82;;;;;;;5.37;70.25;98161.56;5038817;28;20033;-92
2022/01/10 18:33:21;;;;;;;13.65;8.32;;;;;;;5.19;71.83;98141.66;5024785;28;20522;-93
2022/01/10 18:35:47;;;;;;;13.90;9.52;;;;;;;5.10;71.36;98137.38;5040872;28;20045;-92
2022/01/10 18:38:13;;;;;;;20.42;11.43;;;;;;;5.10;70.00;98132.13;5037865;28;20578;-95
2022/01/10 18:40:40;;;;;;;8.88;6.25;;;;;;;5.22;67.40;98138.94;5025379;28;20026;-93
2022/01/10 18:43:08;;;;;;;8.75;4.82;;;;;;;5.15;68.33;98125.00;5021602;28;20508;-94
2022/01/10 18:45:34;;;;;;;8.32;4.20;;;;;;;5.29;66.32;98132.69;5019458;28;20042;-92
2022/01/10 18:48:04;;;;;;;6.60;4.18;;;;;;;5.33;66.78;98134.41;5044028;28;20103;-92
2022/01/10 18:50:30;;;;;;;8.05;4.30;;;;;;;5.43;65.03;98137.75;5040127;28;20046;-93
2022/01/10 18:52:57;;;;;;;7.40;3.88;;;;;;;5.59;64.73;98155.94;5038149;28;20079;-92
2022/01/10 18:55:25;;;;;;;5.78;3.28;;;;;;;5.61;63.96;98148.88;5038270;28;20057;-93
2022/01/10 18:57:51;;;;;;;7.25;3.70;;;;;;;5.75;64.46;98173.25;5038342;28;20057;-95
2022/01/10 19:04:31;;;;;;;9.25;4.57;;;;;;;5.75;64.53;98191.72;5044954;28;20056;-95
2022/01/10 19:06:59;;;;;;;7.43;3.45;;;;;;;5.58;62.52;98147.16;5028682;28;20099;-95
2022/01/10 19:09:24;;;;;;;5.28;3.72;;;;;;;5.62;62.77;98164.69;5056653;28;20056;-93
2022/01/10 19:11:54;;;;;;;9.35;3.88;;;;;;;5.70;62.33;98164.53;5056560;28;20109;-94
2022/01/10 19:14:21;;;;;;;7.07;3.33;;;;;;;5.81;62.30;98167.84;5044240;28;20467;-94
2022/01/10 19:20:10;;;;;;;6.13;3.53;;;;;;;5.65;61.92;98161.97;5019072;28;20053;-93
2022/01/10 19:22:38;;;;;;;6.40;3.53;;;;;;;5.63;62.27;98160.28;5049671;28;20085;-93
2022/01/10 19:25:08;;;;;;;6.47;3.75;;;;;;;5.83;62.77;98197.72;5060330;28;20044;-94